sensor_id;sensor_type;location;lat;lon;timestamp;temperature;humidity
37324;DHT22;23205;49.986;18.950;2022-10-17T00:04:06;11.70;99.90
37324;DHT22;23205;49.986;18.950;2022-10-17T00:09:06;12.30;99.90
37324;DHT22;23205;49.986;18.950;2022-10-17T00:14:09;11.60;99.90
37324;DHT22;23205;49.986;18.950;2022-10-17T00:19:09;11.60;99.90
37324;DHT22;23205;49.986;18.950;2022-10-17T00:24:10;11.50;99.90
37324;DHT22;23205;49.986;18.950;2022-10-17T00:29:11;11.40;99.90
37324;DHT22;23205;49.986;18.950;2022-10-17T00:34:11;11.30;99.90
37324;DHT22;23205;49.986;18.950;2022-10-17T00:39:12;11.80;99.90
37324;DHT22;23205;49.986;18.950;2022-10-17T00:49:33;11.20;99.90
37324;DHT22;23205;49.986;18.950;2022-10-17T00:54:42;11.00;99.90
37324;DHT22;23205;49.986;18.950;2022-10-17T00:59:47;10.30;99.90
37324;DHT22;23205;49.986;18.950;2022-10-17T01:04:51;11.00;99.90
37324;DHT22;23205;49.986;18.950;2022-10-17T01:09:55;11.10;99.90
37324;DHT22;23205;49.986;18.950;2022-10-17T01:31:14;10.90;99.90
37324;DHT22;23205;49.986;18.950;2022-10-17T01:36:27;10.90;99.90
37324;DHT22;23205;49.986;18.950;2022-10-17T01:41:46;10.70;99.90
37324;DHT22;23205;49.986;18.950;2022-10-17T01:46:50;10.60;99.90
37324;DHT22;23205;49.986;18.950;2022-10-17T01:51:59;10.60;99.90
37324;DHT22;23205;49.986;18.950;2022-10-17T01:57:04;10.60;99.90
37324;DHT22;23205;49.986;18.950;2022-10-17T02:02:08;10.50;99.90
37324;DHT22;23205;49.986;18.950;2022-10-17T02:07:11;11.10;99.90
37324;DHT22;23205;49.986;18.950;2022-10-17T02:23:22;10.30;99.90
37324;DHT22;23205;49.986;18.950;2022-10-17T02:33:42;9.90;99.90
37324;DHT22;23205;49.986;18.950;2022-10-17T02:38:44;10.10;99.90
37324;DHT22;23205;49.986;18.950;2022-10-17T02:43:47;10.00;99.90
37324;DHT22;23205;49.986;18.950;2022-10-17T02:48:58;9.90;99.90
37324;DHT22;23205;49.986;18.950;2022-10-17T02:59:17;10.00;99.90
37324;DHT22;23205;49.986;18.950;2022-10-17T03:04:20;10.00;99.90
37324;DHT22;23205;49.986;18.950;2022-10-17T03:09:21;9.80;99.90
37324;DHT22;23205;49.986;18.950;2022-10-17T03:14:22;9.80;99.90
37324;DHT22;23205;49.986;18.950;2022-10-17T03:19:23;9.80;99.90
37324;DHT22;23205;49.986;18.950;2022-10-17T03:24:25;9.90;99.90
37324;DHT22;23205;49.986;18.950;2022-10-17T03:29:26;10.50;99.90
37324;DHT22;23205;49.986;18.950;2022-10-17T03:34:27;9.80;99.90
37324;DHT22;23205;49.986;18.950;2022-10-17T03:39:28;9.80;99.90
37324;DHT22;23205;49.986;18.950;2022-10-17T03:44:29;10.20;99.90
37324;DHT22;23205;49.986;18.950;2022-10-17T03:49:30;9.70;99.90
37324;DHT22;23205;49.986;18.950;2022-10-17T03:54:31;9.70;99.90
37324;DHT22;23205;49.986;18.950;2022-10-17T03:59:32;9.40;99.90
37324;DHT22;23205;49.986;18.950;2022-10-17T04:04:38;9.30;99.90
37324;DHT22;23205;49.986;18.950;2022-10-17T04:09:39;9.20;99.90
37324;DHT22;23205;49.986;18.950;2022-10-17T04:14:44;9.30;99.90
37324;DHT22;23205;49.986;18.950;2022-10-17T04:19:45;9.30;99.90
37324;DHT22;23205;49.986;18.950;2022-10-17T04:24:49;9.50;99.90
37324;DHT22;23205;49.986;18.950;2022-10-17T04:29:59;9.40;99.90
37324;DHT22;23205;49.986;18.950;2022-10-17T04:35:00;9.40;99.90
37324;DHT22;23205;49.986;18.950;2022-10-17T04:40:02;9.20;99.90
37324;DHT22;23205;49.986;18.950;2022-10-17T04:45:06;9.20;99.90
37324;DHT22;23205;49.986;18.950;2022-10-17T04:50:08;9.10;99.90
37324;DHT22;23205;49.986;18.950;2022-10-17T04:55:10;9.20;99.90
37324;DHT22;23205;49.986;18.950;2022-10-17T05:00:12;9.10;99.90
37324;DHT22;23205;49.986;18.950;2022-10-17T05:05:32;9.10;99.90
37324;DHT22;23205;49.986;18.950;2022-10-17T05:10:38;9.00;99.90
37324;DHT22;23205;49.986;18.950;2022-10-17T05:15:39;9.10;99.90
37324;DHT22;23205;49.986;18.950;2022-10-17T05:20:40;9.00;99.90
37324;DHT22;23205;49.986;18.950;2022-10-17T05:25:41;8.90;99.90
37324;DHT22;23205;49.986;18.950;2022-10-17T05:30:41;8.90;99.90
37324;DHT22;23205;49.986;18.950;2022-10-17T05:35:43;10.00;99.90
37324;DHT22;23205;49.986;18.950;2022-10-17T05:40:44;9.20;99.90
37324;DHT22;23205;49.986;18.950;2022-10-17T05:45:45;9.20;99.90
37324;DHT22;23205;49.986;18.950;2022-10-17T05:50:58;9.20;99.90
37324;DHT22;23205;49.986;18.950;2022-10-17T05:56:01;9.40;99.90
37324;DHT22;23205;49.986;18.950;2022-10-17T06:01:05;9.40;99.90
37324;DHT22;23205;49.986;18.950;2022-10-17T06:06:08;9.50;99.90
37324;DHT22;23205;49.986;18.950;2022-10-17T06:11:11;9.70;99.90
37324;DHT22;23205;49.986;18.950;2022-10-17T06:16:12;10.00;99.90
37324;DHT22;23205;49.986;18.950;2022-10-17T06:21:15;10.10;99.90
37324;DHT22;23205;49.986;18.950;2022-10-17T06:26:19;10.30;99.90
37324;DHT22;23205;49.986;18.950;2022-10-17T06:31:21;10.50;99.90
37324;DHT22;23205;49.986;18.950;2022-10-17T06:36:22;10.70;99.90
37324;DHT22;23205;49.986;18.950;2022-10-17T06:41:24;10.80;99.90
37324;DHT22;23205;49.986;18.950;2022-10-17T06:46:28;10.80;99.90
37324;DHT22;23205;49.986;18.950;2022-10-17T06:51:35;11.50;99.90
37324;DHT22;23205;49.986;18.950;2022-10-17T06:56:38;11.40;99.90
37324;DHT22;23205;49.986;18.950;2022-10-17T07:01:52;11.80;99.90
37324;DHT22;23205;49.986;18.950;2022-10-17T07:06:53;12.00;99.90
37324;DHT22;23205;49.986;18.950;2022-10-17T07:11:56;12.20;99.90
37324;DHT22;23205;49.986;18.950;2022-10-17T07:16:58;12.40;99.90
37324;DHT22;23205;49.986;18.950;2022-10-17T07:22:01;12.70;99.90
37324;DHT22;23205;49.986;18.950;2022-10-17T07:27:03;12.90;99.90
37324;DHT22;23205;49.986;18.950;2022-10-17T07:32:04;13.20;99.90
37324;DHT22;23205;49.986;18.950;2022-10-17T07:37:08;13.40;99.90
37324;DHT22;23205;49.986;18.950;2022-10-17T07:42:10;13.60;99.90
37324;DHT22;23205;49.986;18.950;2022-10-17T07:47:11;13.90;99.90
37324;DHT22;23205;49.986;18.950;2022-10-17T07:52:13;14.20;99.90
37324;DHT22;23205;49.986;18.950;2022-10-17T07:57:15;14.70;99.90
37324;DHT22;23205;49.986;18.950;2022-10-17T08:02:26;15.00;99.90
37324;DHT22;23205;49.986;18.950;2022-10-17T08:07:26;15.70;99.90
37324;DHT22;23205;49.986;18.950;2022-10-17T08:12:27;16.10;99.90
37324;DHT22;23205;49.986;18.950;2022-10-17T08:17:34;16.30;99.90
37324;DHT22;23205;49.986;18.950;2022-10-17T08:22:35;16.50;99.90
37324;DHT22;23205;49.986;18.950;2022-10-17T08:27:35;16.80;99.90
37324;DHT22;23205;49.986;18.950;2022-10-17T08:32:36;17.00;99.90
37324;DHT22;23205;49.986;18.950;2022-10-17T08:37:37;17.40;99.90
37324;DHT22;23205;49.986;18.950;2022-10-17T08:47:42;18.60;99.90
37324;DHT22;23205;49.986;18.950;2022-10-17T08:52:58;18.80;99.90
37324;DHT22;23205;49.986;18.950;2022-10-17T08:58:04;19.20;99.90
37324;DHT22;23205;49.986;18.950;2022-10-17T09:08:34;20.80;99.70
37324;DHT22;23205;49.986;18.950;2022-10-17T09:19:17;21.00;97.40
37324;DHT22;23205;49.986;18.950;2022-10-17T09:29:33;22.00;93.30
37324;DHT22;23205;49.986;18.950;2022-10-17T09:34:34;22.40;93.20
37324;DHT22;23205;49.986;18.950;2022-10-17T09:39:34;23.40;90.60
37324;DHT22;23205;49.986;18.950;2022-10-17T09:49:48;24.40;87.80
37324;DHT22;23205;49.986;18.950;2022-10-17T09:54:51;24.70;85.00
37324;DHT22;23205;49.986;18.950;2022-10-17T09:59:58;25.40;84.50
37324;DHT22;23205;49.986;18.950;2022-10-17T10:05:02;25.70;82.10
37324;DHT22;23205;49.986;18.950;2022-10-17T10:10:06;26.10;79.30
37324;DHT22;23205;49.986;18.950;2022-10-17T10:15:31;26.70;78.50
37324;DHT22;23205;49.986;18.950;2022-10-17T10:20:35;27.90;76.00
37324;DHT22;23205;49.986;18.950;2022-10-17T10:25:36;29.20;71.80
37324;DHT22;23205;49.986;18.950;2022-10-17T10:30:37;29.60;72.90
37324;DHT22;23205;49.986;18.950;2022-10-17T10:35:37;30.20;70.80
37324;DHT22;23205;49.986;18.950;2022-10-17T10:40:47;30.50;68.40
37324;DHT22;23205;49.986;18.950;2022-10-17T10:45:50;30.30;66.90
37324;DHT22;23205;49.986;18.950;2022-10-17T10:51:04;30.60;66.20
37324;DHT22;23205;49.986;18.950;2022-10-17T11:01:28;31.50;65.20
37324;DHT22;23205;49.986;18.950;2022-10-17T11:06:35;32.80;63.70
37324;DHT22;23205;49.986;18.950;2022-10-17T11:11:46;32.70;61.60
37324;DHT22;23205;49.986;18.950;2022-10-17T11:22:20;31.80;62.60
37324;DHT22;23205;49.986;18.950;2022-10-17T11:27:23;32.80;60.60
37324;DHT22;23205;49.986;18.950;2022-10-17T11:32:36;32.40;61.60
37324;DHT22;23205;49.986;18.950;2022-10-17T11:37:41;33.20;59.20
37324;DHT22;23205;49.986;18.950;2022-10-17T11:48:08;32.90;59.00
37324;DHT22;23205;49.986;18.950;2022-10-17T11:53:22;33.00;58.70
37324;DHT22;23205;49.986;18.950;2022-10-17T12:09:00;35.60;55.90
37324;DHT22;23205;49.986;18.950;2022-10-17T12:14:34;35.40;56.10
37324;DHT22;23205;49.986;18.950;2022-10-17T12:19:36;38.00;54.10
37324;DHT22;23205;49.986;18.950;2022-10-17T12:24:43;35.30;55.30
37324;DHT22;23205;49.986;18.950;2022-10-17T12:29:44;35.50;55.40
37324;DHT22;23205;49.986;18.950;2022-10-17T12:34:52;34.50;56.10
37324;DHT22;23205;49.986;18.950;2022-10-17T12:39:53;34.30;55.40
37324;DHT22;23205;49.986;18.950;2022-10-17T12:44:54;34.00;55.80
37324;DHT22;23205;49.986;18.950;2022-10-17T12:49:55;33.70;55.70
37324;DHT22;23205;49.986;18.950;2022-10-17T12:55:10;34.10;55.10
37324;DHT22;23205;49.986;18.950;2022-10-17T13:00:45;34.80;53.80
37324;DHT22;23205;49.986;18.950;2022-10-17T13:05:51;32.70;57.30
37324;DHT22;23205;49.986;18.950;2022-10-17T13:10:53;32.20;57.70
37324;DHT22;23205;49.986;18.950;2022-10-17T13:15:54;31.90;57.30
37324;DHT22;23205;49.986;18.950;2022-10-17T13:21:06;31.30;58.90
37324;DHT22;23205;49.986;18.950;2022-10-17T13:26:18;31.70;57.90
37324;DHT22;23205;49.986;18.950;2022-10-17T13:31:34;31.70;56.90
37324;DHT22;23205;49.986;18.950;2022-10-17T13:36:34;30.60;59.20
37324;DHT22;23205;49.986;18.950;2022-10-17T13:41:36;31.00;58.50
37324;DHT22;23205;49.986;18.950;2022-10-17T13:46:38;30.80;58.70
37324;DHT22;23205;49.986;18.950;2022-10-17T13:51:45;31.10;58.60
37324;DHT22;23205;49.986;18.950;2022-10-17T13:56:54;31.30;57.60
37324;DHT22;23205;49.986;18.950;2022-10-17T14:01:55;31.40;58.20
37324;DHT22;23205;49.986;18.950;2022-10-17T14:06:56;30.60;59.40
37324;DHT22;23205;49.986;18.950;2022-10-17T14:12:11;30.90;58.30
37324;DHT22;23205;49.986;18.950;2022-10-17T14:17:25;30.40;59.40
37324;DHT22;23205;49.986;18.950;2022-10-17T14:22:27;30.30;60.00
37324;DHT22;23205;49.986;18.950;2022-10-17T14:27:50;30.60;59.60
37324;DHT22;23205;49.986;18.950;2022-10-17T14:32:57;29.50;60.60
37324;DHT22;23205;49.986;18.950;2022-10-17T14:38:00;28.50;62.60
37324;DHT22;23205;49.986;18.950;2022-10-17T14:43:04;27.30;63.80
37324;DHT22;23205;49.986;18.950;2022-10-17T14:48:09;26.70;65.90
37324;DHT22;23205;49.986;18.950;2022-10-17T14:58:25;25.70;66.90
37324;DHT22;23205;49.986;18.950;2022-10-17T15:03:30;24.70;69.20
37324;DHT22;23205;49.986;18.950;2022-10-17T15:08:30;24.20;70.10
37324;DHT22;23205;49.986;18.950;2022-10-17T15:13:31;23.90;71.20
37324;DHT22;23205;49.986;18.950;2022-10-17T15:18:32;23.50;72.00
37324;DHT22;23205;49.986;18.950;2022-10-17T15:23:33;23.10;74.00
37324;DHT22;23205;49.986;18.950;2022-10-17T15:28:34;22.90;74.00
37324;DHT22;23205;49.986;18.950;2022-10-17T15:33:35;22.50;75.00
37324;DHT22;23205;49.986;18.950;2022-10-17T15:38:35;22.20;75.80
37324;DHT22;23205;49.986;18.950;2022-10-17T15:43:36;21.90;76.60
37324;DHT22;23205;49.986;18.950;2022-10-17T15:48:37;21.70;77.20
37324;DHT22;23205;49.986;18.950;2022-10-17T15:53:38;21.60;77.80
37324;DHT22;23205;49.986;18.950;2022-10-17T15:58:39;21.20;78.90
37324;DHT22;23205;49.986;18.950;2022-10-17T16:03:40;20.90;79.80
37324;DHT22;23205;49.986;18.950;2022-10-17T16:08:40;20.90;79.70
37324;DHT22;23205;49.986;18.950;2022-10-17T16:13:48;20.70;80.30
37324;DHT22;23205;49.986;18.950;2022-10-17T16:18:53;20.50;81.00
37324;DHT22;23205;49.986;18.950;2022-10-17T16:23:54;20.30;82.20
37324;DHT22;23205;49.986;18.950;2022-10-17T16:28:54;20.10;82.60
37324;DHT22;23205;49.986;18.950;2022-10-17T16:33:58;20.00;83.00
37324;DHT22;23205;49.986;18.950;2022-10-17T16:39:00;19.90;84.00
37324;DHT22;23205;49.986;18.950;2022-10-17T16:44:04;19.50;84.50
37324;DHT22;23205;49.986;18.950;2022-10-17T16:49:05;19.30;85.10
37324;DHT22;23205;49.986;18.950;2022-10-17T16:54:07;19.10;86.10
37324;DHT22;23205;49.986;18.950;2022-10-17T16:59:09;19.10;85.80
37324;DHT22;23205;49.986;18.950;2022-10-17T17:04:11;19.10;85.80
37324;DHT22;23205;49.986;18.950;2022-10-17T17:09:11;19.10;86.20
37324;DHT22;23205;49.986;18.950;2022-10-17T17:14:13;18.90;86.50
37324;DHT22;23205;49.986;18.950;2022-10-17T17:19:14;18.90;86.80
37324;DHT22;23205;49.986;18.950;2022-10-17T17:24:17;18.80;87.60
37324;DHT22;23205;49.986;18.950;2022-10-17T17:29:21;18.70;88.20
37324;DHT22;23205;49.986;18.950;2022-10-17T17:34:22;18.60;88.90
37324;DHT22;23205;49.986;18.950;2022-10-17T17:39:23;18.40;89.80
37324;DHT22;23205;49.986;18.950;2022-10-17T17:44:24;18.30;90.50
37324;DHT22;23205;49.986;18.950;2022-10-17T17:49:25;18.10;90.70
37324;DHT22;23205;49.986;18.950;2022-10-17T17:54:25;17.90;91.30
37324;DHT22;23205;49.986;18.950;2022-10-17T17:59:26;17.70;91.80
37324;DHT22;23205;49.986;18.950;2022-10-17T18:04:27;17.50;92.70
37324;DHT22;23205;49.986;18.950;2022-10-17T18:09:27;17.40;93.40
37324;DHT22;23205;49.986;18.950;2022-10-17T18:14:28;17.30;93.70
37324;DHT22;23205;49.986;18.950;2022-10-17T18:19:29;17.30;94.50
37324;DHT22;23205;49.986;18.950;2022-10-17T18:24:29;17.30;94.40
37324;DHT22;23205;49.986;18.950;2022-10-17T18:29:30;17.10;95.40
37324;DHT22;23205;49.986;18.950;2022-10-17T18:34:32;17.10;95.40
37324;DHT22;23205;49.986;18.950;2022-10-17T18:39:33;17.00;95.90
37324;DHT22;23205;49.986;18.950;2022-10-17T18:44:34;17.10;95.80
37324;DHT22;23205;49.986;18.950;2022-10-17T18:49:35;17.20;95.90
37324;DHT22;23205;49.986;18.950;2022-10-17T18:54:36;17.20;96.00
37324;DHT22;23205;49.986;18.950;2022-10-17T18:59:37;17.20;96.00
37324;DHT22;23205;49.986;18.950;2022-10-17T19:04:37;17.00;96.50
37324;DHT22;23205;49.986;18.950;2022-10-17T19:09:38;16.90;97.10
37324;DHT22;23205;49.986;18.950;2022-10-17T19:14:42;17.00;97.00
37324;DHT22;23205;49.986;18.950;2022-10-17T19:19:43;17.00;97.20
37324;DHT22;23205;49.986;18.950;2022-10-17T19:24:43;16.90;98.00
37324;DHT22;23205;49.986;18.950;2022-10-17T19:29:44;16.80;98.40
37324;DHT22;23205;49.986;18.950;2022-10-17T19:34:45;16.60;99.20
37324;DHT22;23205;49.986;18.950;2022-10-17T19:39:47;16.50;99.60
37324;DHT22;23205;49.986;18.950;2022-10-17T19:44:48;16.40;99.90
37324;DHT22;23205;49.986;18.950;2022-10-17T19:49:48;16.20;99.90
37324;DHT22;23205;49.986;18.950;2022-10-17T19:54:49;16.10;99.90
37324;DHT22;23205;49.986;18.950;2022-10-17T19:59:50;16.20;99.90
37324;DHT22;23205;49.986;18.950;2022-10-17T20:04:51;16.00;99.90
37324;DHT22;23205;49.986;18.950;2022-10-17T20:09:51;15.90;99.90
37324;DHT22;23205;49.986;18.950;2022-10-17T20:14:52;16.00;99.90
37324;DHT22;23205;49.986;18.950;2022-10-17T20:19:53;15.80;99.90
37324;DHT22;23205;49.986;18.950;2022-10-17T20:24:53;16.00;99.90
37324;DHT22;23205;49.986;18.950;2022-10-17T20:29:54;15.70;99.90
37324;DHT22;23205;49.986;18.950;2022-10-17T20:34:55;15.30;99.90
37324;DHT22;23205;49.986;18.950;2022-10-17T20:39:56;15.30;99.90
37324;DHT22;23205;49.986;18.950;2022-10-17T20:44:56;15.20;99.90
37324;DHT22;23205;49.986;18.950;2022-10-17T20:49:57;14.90;99.90
37324;DHT22;23205;49.986;18.950;2022-10-17T20:54:58;14.70;99.90
37324;DHT22;23205;49.986;18.950;2022-10-17T20:59:59;14.20;99.90
37324;DHT22;23205;49.986;18.950;2022-10-17T21:04:59;13.90;99.90
37324;DHT22;23205;49.986;18.950;2022-10-17T21:10:00;13.80;99.90
37324;DHT22;23205;49.986;18.950;2022-10-17T21:15:01;13.70;99.90
37324;DHT22;23205;49.986;18.950;2022-10-17T21:20:01;13.60;99.90
37324;DHT22;23205;49.986;18.950;2022-10-17T21:25:02;13.60;99.90
37324;DHT22;23205;49.986;18.950;2022-10-17T21:30:03;13.30;99.90
37324;DHT22;23205;49.986;18.950;2022-10-17T21:35:05;13.20;99.90
37324;DHT22;23205;49.986;18.950;2022-10-17T21:40:06;12.90;99.90
37324;DHT22;23205;49.986;18.950;2022-10-17T21:45:07;12.80;99.90
37324;DHT22;23205;49.986;18.950;2022-10-17T21:50:08;12.80;99.90
37324;DHT22;23205;49.986;18.950;2022-10-17T21:55:09;12.80;99.90
37324;DHT22;23205;49.986;18.950;2022-10-17T22:00:11;12.70;99.90
37324;DHT22;23205;49.986;18.950;2022-10-17T22:05:12;12.70;99.90
37324;DHT22;23205;49.986;18.950;2022-10-17T22:10:13;12.90;99.90
37324;DHT22;23205;49.986;18.950;2022-10-17T22:15:14;13.00;99.90
37324;DHT22;23205;49.986;18.950;2022-10-17T22:20:15;13.00;99.90
37324;DHT22;23205;49.986;18.950;2022-10-17T22:25:15;13.00;99.90
37324;DHT22;23205;49.986;18.950;2022-10-17T22:30:16;13.00;99.90
37324;DHT22;23205;49.986;18.950;2022-10-17T22:35:17;12.80;99.90
37324;DHT22;23205;49.986;18.950;2022-10-17T22:40:17;12.60;99.90
37324;DHT22;23205;49.986;18.950;2022-10-17T22:45:18;12.50;99.90
37324;DHT22;23205;49.986;18.950;2022-10-17T22:50:20;12.50;99.90
37324;DHT22;23205;49.986;18.950;2022-10-17T22:55:21;12.50;99.90
37324;DHT22;23205;49.986;18.950;2022-10-17T23:00:22;12.50;99.90
37324;DHT22;23205;49.986;18.950;2022-10-17T23:05:22;12.50;99.90
37324;DHT22;23205;49.986;18.950;2022-10-17T23:10:23;12.30;99.90
37324;DHT22;23205;49.986;18.950;2022-10-17T23:15:24;12.30;99.90
37324;DHT22;23205;49.986;18.950;2022-10-17T23:20:25;12.10;99.90
37324;DHT22;23205;49.986;18.950;2022-10-17T23:25:26;12.20;99.90
37324;DHT22;23205;49.986;18.950;2022-10-17T23:30:27;12.20;99.90
37324;DHT22;23205;49.986;18.950;2022-10-17T23:35:31;12.40;99.90
37324;DHT22;23205;49.986;18.950;2022-10-17T23:40:32;12.40;99.90
37324;DHT22;23205;49.986;18.950;2022-10-17T23:45:34;12.50;99.90
37324;DHT22;23205;49.986;18.950;2022-10-17T23:50:34;12.40;99.90
37324;DHT22;23205;49.986;18.950;2022-10-17T23:55:35;12.30;99.90
